sensor_id;sensor_type;location;lat;lon;timestamp;P1;durP1;ratioP1;P2;durP2;ratioP2
35990;SDS011;22064;42.672;23.282;2023-06-26T00:02:07;31.77;;;18.13;;
35990;SDS011;22064;42.672;23.282;2023-06-26T00:04:33;28.58;;;17.70;;
35990;SDS011;22064;42.672;23.282;2023-06-26T00:07:00;28.67;;;17.95;;
35990;SDS011;22064;42.672;23.282;2023-06-26T00:09:26;28.48;;;16.88;;
35990;SDS011;22064;42.672;23.282;2023-06-26T00:11:51;28.85;;;17.08;;
35990;SDS011;22064;42.672;23.282;2023-06-26T00:14:18;30.40;;;18.77;;
35990;SDS011;22064;42.672;23.282;2023-06-26T00:16:46;28.02;;;16.13;;
35990;SDS011;22064;42.672;23.282;2023-06-26T00:19:15;30.55;;;17.48;;
35990;SDS011;22064;42.672;23.282;2023-06-26T00:21:41;27.52;;;15.82;;
35990;SDS011;22064;42.672;23.282;2023-06-26T00:24:13;28.92;;;16.95;;
35990;SDS011;22064;42.672;23.282;2023-06-26T00:26:40;28.90;;;16.63;;
35990;SDS011;22064;42.672;23.282;2023-06-26T00:29:06;27.58;;;16.88;;
35990;SDS011;22064;42.672;23.282;2023-06-26T00:31:32;26.98;;;16.08;;
35990;SDS011;22064;42.672;23.282;2023-06-26T00:34:01;29.95;;;16.48;;
35990;SDS011;22064;42.672;23.282;2023-06-26T00:36:27;24.77;;;14.77;;
35990;SDS011;22064;42.672;23.282;2023-06-26T00:38:53;28.58;;;14.75;;
35990;SDS011;22064;42.672;23.282;2023-06-26T00:41:19;26.80;;;14.82;;
35990;SDS011;22064;42.672;23.282;2023-06-26T00:43:45;28.38;;;15.85;;
35990;SDS011;22064;42.672;23.282;2023-06-26T00:46:14;28.25;;;15.65;;
35990;SDS011;22064;42.672;23.282;2023-06-26T00:48:41;24.98;;;14.82;;
35990;SDS011;22064;42.672;23.282;2023-06-26T00:51:07;24.85;;;13.70;;
35990;SDS011;22064;42.672;23.282;2023-06-26T00:53:34;25.17;;;14.18;;
35990;SDS011;22064;42.672;23.282;2023-06-26T00:56:03;24.95;;;14.65;;
35990;SDS011;22064;42.672;23.282;2023-06-26T00:58:30;24.67;;;15.30;;
35990;SDS011;22064;42.672;23.282;2023-06-26T01:00:56;25.00;;;14.77;;
35990;SDS011;22064;42.672;23.282;2023-06-26T01:03:23;23.92;;;14.05;;
35990;SDS011;22064;42.672;23.282;2023-06-26T01:05:50;24.33;;;13.90;;
35990;SDS011;22064;42.672;23.282;2023-06-26T01:08:17;23.05;;;14.25;;
35990;SDS011;22064;42.672;23.282;2023-06-26T01:10:44;23.92;;;14.35;;
35990;SDS011;22064;42.672;23.282;2023-06-26T01:13:12;24.00;;;14.35;;
35990;SDS011;22064;42.672;23.282;2023-06-26T01:15:40;26.08;;;14.85;;
35990;SDS011;22064;42.672;23.282;2023-06-26T01:18:06;25.85;;;14.55;;
35990;SDS011;22064;42.672;23.282;2023-06-26T01:20:36;23.48;;;13.85;;
35990;SDS011;22064;42.672;23.282;2023-06-26T01:23:17;26.10;;;14.80;;
35990;SDS011;22064;42.672;23.282;2023-06-26T01:25:56;24.85;;;14.45;;
35990;SDS011;22064;42.672;23.282;2023-06-26T01:28:34;26.83;;;14.95;;
35990;SDS011;22064;42.672;23.282;2023-06-26T01:33:30;26.75;;;14.00;;
35990;SDS011;22064;42.672;23.282;2023-06-26T01:35:56;24.92;;;14.05;;
35990;SDS011;22064;42.672;23.282;2023-06-26T01:38:22;24.05;;;14.65;;
35990;SDS011;22064;42.672;23.282;2023-06-26T01:40:49;24.75;;;14.68;;
35990;SDS011;22064;42.672;23.282;2023-06-26T01:45:41;27.58;;;14.93;;
35990;SDS011;22064;42.672;23.282;2023-06-26T01:48:09;28.40;;;15.35;;
35990;SDS011;22064;42.672;23.282;2023-06-26T01:50:40;27.42;;;14.90;;
35990;SDS011;22064;42.672;23.282;2023-06-26T01:53:10;23.73;;;13.75;;
35990;SDS011;22064;42.672;23.282;2023-06-26T01:55:44;23.25;;;14.15;;
35990;SDS011;22064;42.672;23.282;2023-06-26T01:58:15;22.63;;;14.52;;
35990;SDS011;22064;42.672;23.282;2023-06-26T02:00:42;27.05;;;15.27;;
35990;SDS011;22064;42.672;23.282;2023-06-26T02:03:09;26.23;;;15.10;;
35990;SDS011;22064;42.672;23.282;2023-06-26T02:05:38;25.05;;;14.55;;
35990;SDS011;22064;42.672;23.282;2023-06-26T02:08:04;24.70;;;14.43;;
35990;SDS011;22064;42.672;23.282;2023-06-26T02:10:31;25.65;;;15.40;;
35990;SDS011;22064;42.672;23.282;2023-06-26T02:12:57;29.35;;;16.55;;
35990;SDS011;22064;42.672;23.282;2023-06-26T02:15:23;26.05;;;15.35;;
35990;SDS011;22064;42.672;23.282;2023-06-26T02:17:48;26.20;;;14.77;;
35990;SDS011;22064;42.672;23.282;2023-06-26T02:20:14;27.83;;;16.70;;
35990;SDS011;22064;42.672;23.282;2023-06-26T02:22:41;25.20;;;16.83;;
35990;SDS011;22064;42.672;23.282;2023-06-26T02:25:08;27.65;;;16.65;;
35990;SDS011;22064;42.672;23.282;2023-06-26T02:27:35;29.52;;;17.58;;
35990;SDS011;22064;42.672;23.282;2023-06-26T02:30:01;28.13;;;17.45;;
35990;SDS011;22064;42.672;23.282;2023-06-26T02:32:27;28.08;;;18.00;;
35990;SDS011;22064;42.672;23.282;2023-06-26T02:34:53;26.88;;;17.48;;
35990;SDS011;22064;42.672;23.282;2023-06-26T02:37:19;25.50;;;16.83;;
35990;SDS011;22064;42.672;23.282;2023-06-26T02:39:46;28.80;;;17.88;;
35990;SDS011;22064;42.672;23.282;2023-06-26T02:42:12;28.50;;;17.23;;
35990;SDS011;22064;42.672;23.282;2023-06-26T02:44:38;27.40;;;17.92;;
35990;SDS011;22064;42.672;23.282;2023-06-26T02:47:04;29.83;;;17.92;;
35990;SDS011;22064;42.672;23.282;2023-06-26T02:49:31;28.27;;;17.73;;
35990;SDS011;22064;42.672;23.282;2023-06-26T02:51:56;28.35;;;17.75;;
35990;SDS011;22064;42.672;23.282;2023-06-26T02:54:28;30.08;;;18.67;;
35990;SDS011;22064;42.672;23.282;2023-06-26T02:57:00;27.58;;;17.67;;
35990;SDS011;22064;42.672;23.282;2023-06-26T02:59:28;27.35;;;17.15;;
35990;SDS011;22064;42.672;23.282;2023-06-26T03:01:55;30.70;;;19.17;;
35990;SDS011;22064;42.672;23.282;2023-06-26T03:04:27;28.33;;;17.55;;
35990;SDS011;22064;42.672;23.282;2023-06-26T03:06:53;30.08;;;18.85;;
35990;SDS011;22064;42.672;23.282;2023-06-26T03:09:19;33.00;;;19.10;;
35990;SDS011;22064;42.672;23.282;2023-06-26T03:11:45;29.80;;;18.80;;
35990;SDS011;22064;42.672;23.282;2023-06-26T03:14:11;28.67;;;17.55;;
35990;SDS011;22064;42.672;23.282;2023-06-26T03:16:37;31.40;;;18.98;;
35990;SDS011;22064;42.672;23.282;2023-06-26T03:19:04;33.13;;;20.05;;
35990;SDS011;22064;42.672;23.282;2023-06-26T03:21:35;33.83;;;18.95;;
35990;SDS011;22064;42.672;23.282;2023-06-26T03:24:01;28.55;;;17.88;;
35990;SDS011;22064;42.672;23.282;2023-06-26T03:26:27;32.63;;;20.30;;
35990;SDS011;22064;42.672;23.282;2023-06-26T03:28:54;32.60;;;19.95;;
35990;SDS011;22064;42.672;23.282;2023-06-26T03:31:20;32.92;;;20.98;;
35990;SDS011;22064;42.672;23.282;2023-06-26T03:33:47;28.90;;;19.02;;
35990;SDS011;22064;42.672;23.282;2023-06-26T03:36:13;32.17;;;20.00;;
35990;SDS011;22064;42.672;23.282;2023-06-26T03:38:40;31.67;;;19.30;;
35990;SDS011;22064;42.672;23.282;2023-06-26T03:41:07;32.20;;;21.33;;
35990;SDS011;22064;42.672;23.282;2023-06-26T03:43:33;32.25;;;20.67;;
35990;SDS011;22064;42.672;23.282;2023-06-26T03:46:20;32.28;;;19.92;;
35990;SDS011;22064;42.672;23.282;2023-06-26T03:48:46;30.75;;;18.88;;
35990;SDS011;22064;42.672;23.282;2023-06-26T03:51:13;28.70;;;18.42;;
35990;SDS011;22064;42.672;23.282;2023-06-26T03:53:40;30.50;;;19.83;;
35990;SDS011;22064;42.672;23.282;2023-06-26T03:56:06;30.10;;;18.92;;
35990;SDS011;22064;42.672;23.282;2023-06-26T03:58:32;35.10;;;20.52;;
35990;SDS011;22064;42.672;23.282;2023-06-26T04:00:58;29.10;;;19.88;;
35990;SDS011;22064;42.672;23.282;2023-06-26T04:03:24;30.35;;;18.92;;
35990;SDS011;22064;42.672;23.282;2023-06-26T04:05:50;30.38;;;19.45;;
35990;SDS011;22064;42.672;23.282;2023-06-26T04:08:16;29.38;;;18.65;;
35990;SDS011;22064;42.672;23.282;2023-06-26T04:10:42;30.55;;;18.67;;
35990;SDS011;22064;42.672;23.282;2023-06-26T04:13:11;27.52;;;18.23;;
35990;SDS011;22064;42.672;23.282;2023-06-26T04:15:37;28.67;;;17.75;;
35990;SDS011;22064;42.672;23.282;2023-06-26T04:18:03;28.38;;;19.33;;
35990;SDS011;22064;42.672;23.282;2023-06-26T04:20:29;28.92;;;18.75;;
35990;SDS011;22064;42.672;23.282;2023-06-26T04:22:56;26.75;;;17.75;;
35990;SDS011;22064;42.672;23.282;2023-06-26T04:25:22;26.08;;;16.98;;
35990;SDS011;22064;42.672;23.282;2023-06-26T04:27:48;29.90;;;17.63;;
35990;SDS011;22064;42.672;23.282;2023-06-26T04:30:14;27.05;;;17.00;;
35990;SDS011;22064;42.672;23.282;2023-06-26T04:32:40;28.50;;;17.55;;
35990;SDS011;22064;42.672;23.282;2023-06-26T04:35:06;25.45;;;15.77;;
35990;SDS011;22064;42.672;23.282;2023-06-26T04:37:32;26.50;;;17.35;;
35990;SDS011;22064;42.672;23.282;2023-06-26T04:39:58;28.98;;;16.85;;
35990;SDS011;22064;42.672;23.282;2023-06-26T04:42:24;27.92;;;16.95;;
35990;SDS011;22064;42.672;23.282;2023-06-26T04:44:49;28.02;;;16.67;;
35990;SDS011;22064;42.672;23.282;2023-06-26T04:47:15;24.40;;;16.38;;
35990;SDS011;22064;42.672;23.282;2023-06-26T04:49:42;25.88;;;16.70;;
35990;SDS011;22064;42.672;23.282;2023-06-26T04:52:12;25.45;;;16.48;;
35990;SDS011;22064;42.672;23.282;2023-06-26T04:54:41;25.65;;;15.98;;
35990;SDS011;22064;42.672;23.282;2023-06-26T04:57:07;26.23;;;16.92;;
35990;SDS011;22064;42.672;23.282;2023-06-26T04:59:35;26.88;;;17.88;;
35990;SDS011;22064;42.672;23.282;2023-06-26T05:02:00;24.75;;;15.95;;
35990;SDS011;22064;42.672;23.282;2023-06-26T05:04:26;27.08;;;17.02;;
35990;SDS011;22064;42.672;23.282;2023-06-26T05:06:52;24.58;;;16.08;;
35990;SDS011;22064;42.672;23.282;2023-06-26T05:09:18;27.20;;;16.13;;
35990;SDS011;22064;42.672;23.282;2023-06-26T05:11:44;24.15;;;15.45;;
35990;SDS011;22064;42.672;23.282;2023-06-26T05:14:09;24.73;;;16.30;;
35990;SDS011;22064;42.672;23.282;2023-06-26T05:16:36;25.05;;;16.10;;
35990;SDS011;22064;42.672;23.282;2023-06-26T05:19:02;24.05;;;15.88;;
35990;SDS011;22064;42.672;23.282;2023-06-26T05:21:28;25.15;;;15.98;;
35990;SDS011;22064;42.672;23.282;2023-06-26T05:23:55;26.25;;;16.52;;
35990;SDS011;22064;42.672;23.282;2023-06-26T05:26:23;27.98;;;16.95;;
35990;SDS011;22064;42.672;23.282;2023-06-26T05:28:50;24.30;;;15.75;;
35990;SDS011;22064;42.672;23.282;2023-06-26T05:31:16;25.85;;;16.45;;
35990;SDS011;22064;42.672;23.282;2023-06-26T05:33:43;25.55;;;15.85;;
35990;SDS011;22064;42.672;23.282;2023-06-26T05:36:12;24.98;;;15.57;;
35990;SDS011;22064;42.672;23.282;2023-06-26T05:38:41;25.53;;;15.90;;
35990;SDS011;22064;42.672;23.282;2023-06-26T05:41:08;23.92;;;15.10;;
35990;SDS011;22064;42.672;23.282;2023-06-26T05:43:34;25.42;;;15.82;;
35990;SDS011;22064;42.672;23.282;2023-06-26T05:46:00;24.60;;;15.80;;
35990;SDS011;22064;42.672;23.282;2023-06-26T05:48:26;25.20;;;16.27;;
35990;SDS011;22064;42.672;23.282;2023-06-26T05:50:52;25.95;;;15.35;;
35990;SDS011;22064;42.672;23.282;2023-06-26T05:53:18;23.95;;;15.55;;
35990;SDS011;22064;42.672;23.282;2023-06-26T05:55:44;23.48;;;15.13;;
35990;SDS011;22064;42.672;23.282;2023-06-26T05:58:10;23.85;;;14.57;;
35990;SDS011;22064;42.672;23.282;2023-06-26T06:00:38;23.05;;;14.68;;
35990;SDS011;22064;42.672;23.282;2023-06-26T06:03:05;24.60;;;16.35;;
35990;SDS011;22064;42.672;23.282;2023-06-26T06:05:31;21.23;;;14.25;;
35990;SDS011;22064;42.672;23.282;2023-06-26T06:07:57;24.10;;;15.27;;
35990;SDS011;22064;42.672;23.282;2023-06-26T06:10:23;25.20;;;15.07;;
35990;SDS011;22064;42.672;23.282;2023-06-26T06:12:49;21.38;;;13.80;;
35990;SDS011;22064;42.672;23.282;2023-06-26T06:15:15;22.40;;;13.45;;
35990;SDS011;22064;42.672;23.282;2023-06-26T06:17:41;22.73;;;13.75;;
35990;SDS011;22064;42.672;23.282;2023-06-26T06:20:07;22.83;;;13.98;;
35990;SDS011;22064;42.672;23.282;2023-06-26T06:22:33;22.58;;;14.68;;
35990;SDS011;22064;42.672;23.282;2023-06-26T06:24:59;21.20;;;13.07;;
35990;SDS011;22064;42.672;23.282;2023-06-26T06:27:26;23.25;;;13.57;;
35990;SDS011;22064;42.672;23.282;2023-06-26T06:29:52;20.98;;;13.15;;
35990;SDS011;22064;42.672;23.282;2023-06-26T06:32:18;22.58;;;13.98;;
35990;SDS011;22064;42.672;23.282;2023-06-26T06:34:45;22.63;;;14.40;;
35990;SDS011;22064;42.672;23.282;2023-06-26T06:37:11;20.55;;;13.13;;
35990;SDS011;22064;42.672;23.282;2023-06-26T06:39:37;23.90;;;14.50;;
35990;SDS011;22064;42.672;23.282;2023-06-26T06:42:02;22.77;;;14.57;;
35990;SDS011;22064;42.672;23.282;2023-06-26T06:44:29;22.42;;;13.45;;
35990;SDS011;22064;42.672;23.282;2023-06-26T06:46:56;21.25;;;12.93;;
35990;SDS011;22064;42.672;23.282;2023-06-26T06:49:22;19.85;;;12.75;;
35990;SDS011;22064;42.672;23.282;2023-06-26T06:51:48;20.60;;;12.27;;
35990;SDS011;22064;42.672;23.282;2023-06-26T06:54:15;17.95;;;10.80;;
35990;SDS011;22064;42.672;23.282;2023-06-26T06:56:42;20.13;;;11.55;;
35990;SDS011;22064;42.672;23.282;2023-06-26T06:59:08;17.75;;;11.00;;
35990;SDS011;22064;42.672;23.282;2023-06-26T07:01:35;17.88;;;11.07;;
35990;SDS011;22064;42.672;23.282;2023-06-26T07:04:01;16.48;;;10.63;;
35990;SDS011;22064;42.672;23.282;2023-06-26T07:06:29;16.85;;;10.60;;
35990;SDS011;22064;42.672;23.282;2023-06-26T07:08:55;15.55;;;9.57;;
35990;SDS011;22064;42.672;23.282;2023-06-26T07:11:21;16.15;;;9.38;;
35990;SDS011;22064;42.672;23.282;2023-06-26T07:13:47;19.75;;;11.20;;
35990;SDS011;22064;42.672;23.282;2023-06-26T07:16:13;16.77;;;9.90;;
35990;SDS011;22064;42.672;23.282;2023-06-26T07:18:40;17.25;;;10.88;;
35990;SDS011;22064;42.672;23.282;2023-06-26T07:21:07;16.95;;;11.10;;
35990;SDS011;22064;42.672;23.282;2023-06-26T07:23:33;15.88;;;9.40;;
35990;SDS011;22064;42.672;23.282;2023-06-26T07:25:59;16.25;;;9.70;;
35990;SDS011;22064;42.672;23.282;2023-06-26T07:28:25;17.17;;;10.48;;
35990;SDS011;22064;42.672;23.282;2023-06-26T07:30:51;18.48;;;10.48;;
35990;SDS011;22064;42.672;23.282;2023-06-26T07:33:17;16.10;;;9.25;;
35990;SDS011;22064;42.672;23.282;2023-06-26T07:35:43;16.13;;;9.70;;
35990;SDS011;22064;42.672;23.282;2023-06-26T07:38:09;12.15;;;6.25;;
35990;SDS011;22064;42.672;23.282;2023-06-26T07:40:35;13.50;;;8.48;;
35990;SDS011;22064;42.672;23.282;2023-06-26T07:43:01;15.35;;;9.77;;
35990;SDS011;22064;42.672;23.282;2023-06-26T07:45:27;15.98;;;9.98;;
35990;SDS011;22064;42.672;23.282;2023-06-26T07:47:54;15.35;;;9.05;;
35990;SDS011;22064;42.672;23.282;2023-06-26T07:50:20;14.70;;;8.23;;
35990;SDS011;22064;42.672;23.282;2023-06-26T07:52:48;13.32;;;7.53;;
35990;SDS011;22064;42.672;23.282;2023-06-26T07:55:14;13.30;;;6.97;;
35990;SDS011;22064;42.672;23.282;2023-06-26T07:57:41;14.07;;;7.50;;
35990;SDS011;22064;42.672;23.282;2023-06-26T08:00:07;14.85;;;7.72;;
35990;SDS011;22064;42.672;23.282;2023-06-26T08:02:39;11.13;;;6.78;;
35990;SDS011;22064;42.672;23.282;2023-06-26T08:05:05;13.98;;;7.93;;
35990;SDS011;22064;42.672;23.282;2023-06-26T08:07:32;12.00;;;6.93;;
35990;SDS011;22064;42.672;23.282;2023-06-26T08:09:57;10.80;;;6.53;;
35990;SDS011;22064;42.672;23.282;2023-06-26T08:12:23;14.13;;;8.10;;
35990;SDS011;22064;42.672;23.282;2023-06-26T08:14:49;13.90;;;7.85;;
35990;SDS011;22064;42.672;23.282;2023-06-26T08:17:15;13.45;;;7.40;;
35990;SDS011;22064;42.672;23.282;2023-06-26T08:19:41;12.77;;;7.30;;
35990;SDS011;22064;42.672;23.282;2023-06-26T08:22:07;13.60;;;7.75;;
35990;SDS011;22064;42.672;23.282;2023-06-26T08:24:33;13.55;;;7.90;;
35990;SDS011;22064;42.672;23.282;2023-06-26T08:26:59;12.57;;;7.20;;
35990;SDS011;22064;42.672;23.282;2023-06-26T08:29:25;13.50;;;7.72;;
35990;SDS011;22064;42.672;23.282;2023-06-26T08:31:51;16.27;;;8.15;;
35990;SDS011;22064;42.672;23.282;2023-06-26T08:34:17;12.50;;;6.60;;
35990;SDS011;22064;42.672;23.282;2023-06-26T08:36:43;11.45;;;6.40;;
35990;SDS011;22064;42.672;23.282;2023-06-26T08:39:10;10.00;;;6.30;;
35990;SDS011;22064;42.672;23.282;2023-06-26T08:41:36;12.27;;;6.53;;
35990;SDS011;22064;42.672;23.282;2023-06-26T08:44:02;10.13;;;6.25;;
35990;SDS011;22064;42.672;23.282;2023-06-26T08:46:30;11.05;;;6.03;;
35990;SDS011;22064;42.672;23.282;2023-06-26T08:49:00;9.60;;;5.93;;
35990;SDS011;22064;42.672;23.282;2023-06-26T08:51:30;9.50;;;6.18;;
35990;SDS011;22064;42.672;23.282;2023-06-26T08:54:00;10.70;;;5.80;;
35990;SDS011;22064;42.672;23.282;2023-06-26T08:56:32;10.90;;;6.60;;
35990;SDS011;22064;42.672;23.282;2023-06-26T08:59:01;9.35;;;5.78;;
35990;SDS011;22064;42.672;23.282;2023-06-26T09:01:28;12.95;;;6.50;;
35990;SDS011;22064;42.672;23.282;2023-06-26T09:03:54;9.77;;;5.85;;
35990;SDS011;22064;42.672;23.282;2023-06-26T09:06:20;14.40;;;7.30;;
35990;SDS011;22064;42.672;23.282;2023-06-26T09:08:46;10.20;;;6.43;;
35990;SDS011;22064;42.672;23.282;2023-06-26T09:11:12;10.60;;;6.65;;
35990;SDS011;22064;42.672;23.282;2023-06-26T09:13:39;10.63;;;6.20;;
35990;SDS011;22064;42.672;23.282;2023-06-26T09:16:06;11.20;;;6.20;;
35990;SDS011;22064;42.672;23.282;2023-06-26T09:18:33;9.57;;;5.57;;
35990;SDS011;22064;42.672;23.282;2023-06-26T09:20:59;11.95;;;6.10;;
35990;SDS011;22064;42.672;23.282;2023-06-26T09:23:26;10.23;;;5.50;;
35990;SDS011;22064;42.672;23.282;2023-06-26T09:25:52;11.07;;;6.38;;
35990;SDS011;22064;42.672;23.282;2023-06-26T09:28:18;10.23;;;5.75;;
35990;SDS011;22064;42.672;23.282;2023-06-26T09:30:44;10.00;;;6.28;;
35990;SDS011;22064;42.672;23.282;2023-06-26T09:33:17;11.70;;;6.57;;
35990;SDS011;22064;42.672;23.282;2023-06-26T09:35:45;11.05;;;6.40;;
35990;SDS011;22064;42.672;23.282;2023-06-26T09:38:13;11.20;;;6.72;;
35990;SDS011;22064;42.672;23.282;2023-06-26T09:40:40;8.65;;;5.90;;
35990;SDS011;22064;42.672;23.282;2023-06-26T09:43:12;10.25;;;5.95;;
35990;SDS011;22064;42.672;23.282;2023-06-26T09:45:39;10.63;;;5.95;;
35990;SDS011;22064;42.672;23.282;2023-06-26T09:48:06;8.60;;;5.70;;
35990;SDS011;22064;42.672;23.282;2023-06-26T09:50:35;9.10;;;5.40;;
35990;SDS011;22064;42.672;23.282;2023-06-26T09:53:08;9.07;;;5.18;;
35990;SDS011;22064;42.672;23.282;2023-06-26T09:55:39;9.77;;;5.15;;
35990;SDS011;22064;42.672;23.282;2023-06-26T09:58:06;11.13;;;5.75;;
35990;SDS011;22064;42.672;23.282;2023-06-26T10:00:32;11.02;;;5.88;;
35990;SDS011;22064;42.672;23.282;2023-06-26T10:02:59;9.95;;;5.60;;
35990;SDS011;22064;42.672;23.282;2023-06-26T10:05:26;9.60;;;5.78;;
35990;SDS011;22064;42.672;23.282;2023-06-26T10:07:52;10.45;;;5.93;;
35990;SDS011;22064;42.672;23.282;2023-06-26T10:10:19;8.70;;;5.40;;
35990;SDS011;22064;42.672;23.282;2023-06-26T10:12:48;8.98;;;5.53;;
35990;SDS011;22064;42.672;23.282;2023-06-26T10:15:16;8.07;;;5.40;;
35990;SDS011;22064;42.672;23.282;2023-06-26T10:17:45;8.83;;;5.70;;
35990;SDS011;22064;42.672;23.282;2023-06-26T10:20:12;11.18;;;6.10;;
35990;SDS011;22064;42.672;23.282;2023-06-26T10:22:41;8.48;;;5.43;;
35990;SDS011;22064;42.672;23.282;2023-06-26T10:25:10;10.63;;;5.72;;
35990;SDS011;22064;42.672;23.282;2023-06-26T10:27:41;8.15;;;5.10;;
35990;SDS011;22064;42.672;23.282;2023-06-26T10:30:16;10.70;;;6.05;;
35990;SDS011;22064;42.672;23.282;2023-06-26T10:32:46;10.10;;;5.80;;
35990;SDS011;22064;42.672;23.282;2023-06-26T10:35:12;10.65;;;5.82;;
35990;SDS011;22064;42.672;23.282;2023-06-26T10:37:46;11.60;;;5.72;;
35990;SDS011;22064;42.672;23.282;2023-06-26T10:40:24;9.88;;;5.35;;
35990;SDS011;22064;42.672;23.282;2023-06-26T10:42:51;10.43;;;5.88;;
35990;SDS011;22064;42.672;23.282;2023-06-26T10:45:33;10.68;;;6.07;;
35990;SDS011;22064;42.672;23.282;2023-06-26T10:48:03;8.75;;;5.45;;
35990;SDS011;22064;42.672;23.282;2023-06-26T10:50:32;8.50;;;5.18;;
35990;SDS011;22064;42.672;23.282;2023-06-26T10:53:10;11.18;;;5.78;;
35990;SDS011;22064;42.672;23.282;2023-06-26T10:55:43;11.02;;;6.30;;
35990;SDS011;22064;42.672;23.282;2023-06-26T11:03:44;11.67;;;6.60;;
35990;SDS011;22064;42.672;23.282;2023-06-26T11:06:17;13.10;;;6.32;;
35990;SDS011;22064;42.672;23.282;2023-06-26T11:08:47;9.95;;;5.60;;
35990;SDS011;22064;42.672;23.282;2023-06-26T11:11:19;10.20;;;6.10;;
35990;SDS011;22064;42.672;23.282;2023-06-26T11:13:46;10.38;;;6.00;;
35990;SDS011;22064;42.672;23.282;2023-06-26T11:16:13;11.20;;;5.78;;
35990;SDS011;22064;42.672;23.282;2023-06-26T11:18:40;11.00;;;5.70;;
35990;SDS011;22064;42.672;23.282;2023-06-26T11:21:10;8.57;;;5.53;;
35990;SDS011;22064;42.672;23.282;2023-06-26T11:23:40;9.25;;;6.03;;
35990;SDS011;22064;42.672;23.282;2023-06-26T11:26:13;8.70;;;5.03;;
35990;SDS011;22064;42.672;23.282;2023-06-26T11:29:01;10.82;;;5.47;;
35990;SDS011;22064;42.672;23.282;2023-06-26T11:31:29;9.32;;;5.65;;
35990;SDS011;22064;42.672;23.282;2023-06-26T11:34:06;9.75;;;5.68;;
35990;SDS011;22064;42.672;23.282;2023-06-26T11:36:40;12.10;;;6.28;;
35990;SDS011;22064;42.672;23.282;2023-06-26T11:39:08;11.35;;;5.68;;
35990;SDS011;22064;42.672;23.282;2023-06-26T11:41:35;9.93;;;5.90;;
35990;SDS011;22064;42.672;23.282;2023-06-26T11:44:02;11.07;;;5.78;;
35990;SDS011;22064;42.672;23.282;2023-06-26T11:46:33;10.95;;;6.03;;
35990;SDS011;22064;42.672;23.282;2023-06-26T11:49:00;9.40;;;5.55;;
35990;SDS011;22064;42.672;23.282;2023-06-26T11:51:29;10.98;;;5.68;;
35990;SDS011;22064;42.672;23.282;2023-06-26T11:53:55;10.45;;;6.00;;
35990;SDS011;22064;42.672;23.282;2023-06-26T11:56:21;11.30;;;6.00;;
35990;SDS011;22064;42.672;23.282;2023-06-26T11:59:02;10.15;;;5.78;;
35990;SDS011;22064;42.672;23.282;2023-06-26T12:04:05;11.35;;;5.63;;
35990;SDS011;22064;42.672;23.282;2023-06-26T12:06:36;11.05;;;5.80;;
35990;SDS011;22064;42.672;23.282;2023-06-26T12:09:06;11.30;;;5.90;;
35990;SDS011;22064;42.672;23.282;2023-06-26T12:11:35;11.63;;;6.47;;
35990;SDS011;22064;42.672;23.282;2023-06-26T12:14:04;10.57;;;5.93;;
35990;SDS011;22064;42.672;23.282;2023-06-26T12:16:31;10.63;;;5.88;;
35990;SDS011;22064;42.672;23.282;2023-06-26T12:19:00;9.93;;;5.47;;
35990;SDS011;22064;42.672;23.282;2023-06-26T12:21:27;8.75;;;5.60;;
35990;SDS011;22064;42.672;23.282;2023-06-26T12:24:02;9.52;;;5.40;;
35990;SDS011;22064;42.672;23.282;2023-06-26T12:26:32;9.65;;;5.63;;
35990;SDS011;22064;42.672;23.282;2023-06-26T12:29:08;10.02;;;5.00;;
35990;SDS011;22064;42.672;23.282;2023-06-26T12:31:39;9.60;;;5.43;;
35990;SDS011;22064;42.672;23.282;2023-06-26T12:34:14;8.77;;;5.32;;
35990;SDS011;22064;42.672;23.282;2023-06-26T12:36:45;9.10;;;5.50;;
35990;SDS011;22064;42.672;23.282;2023-06-26T12:39:16;9.60;;;5.93;;
35990;SDS011;22064;42.672;23.282;2023-06-26T12:41:44;11.25;;;6.30;;
35990;SDS011;22064;42.672;23.282;2023-06-26T12:44:17;11.02;;;5.90;;
35990;SDS011;22064;42.672;23.282;2023-06-26T12:46:43;9.88;;;5.85;;
35990;SDS011;22064;42.672;23.282;2023-06-26T12:49:12;10.10;;;5.90;;
35990;SDS011;22064;42.672;23.282;2023-06-26T12:51:38;10.60;;;6.10;;
35990;SDS011;22064;42.672;23.282;2023-06-26T12:54:05;11.63;;;6.35;;
35990;SDS011;22064;42.672;23.282;2023-06-26T12:56:31;12.52;;;6.07;;
35990;SDS011;22064;42.672;23.282;2023-06-26T12:58:58;13.13;;;6.60;;
35990;SDS011;22064;42.672;23.282;2023-06-26T13:01:24;12.13;;;6.10;;
35990;SDS011;22064;42.672;23.282;2023-06-26T13:03:50;11.18;;;6.00;;
35990;SDS011;22064;42.672;23.282;2023-06-26T13:06:18;9.57;;;6.28;;
35990;SDS011;22064;42.672;23.282;2023-06-26T13:08:44;11.40;;;6.28;;
35990;SDS011;22064;42.672;23.282;2023-06-26T13:11:10;11.63;;;6.25;;
35990;SDS011;22064;42.672;23.282;2023-06-26T13:13:36;11.40;;;6.55;;
35990;SDS011;22064;42.672;23.282;2023-06-26T13:16:02;10.48;;;6.20;;
35990;SDS011;22064;42.672;23.282;2023-06-26T13:18:29;12.43;;;6.20;;
35990;SDS011;22064;42.672;23.282;2023-06-26T13:20:55;10.85;;;5.72;;
35990;SDS011;22064;42.672;23.282;2023-06-26T13:23:20;9.18;;;6.20;;
35990;SDS011;22064;42.672;23.282;2023-06-26T13:25:46;9.15;;;5.85;;
35990;SDS011;22064;42.672;23.282;2023-06-26T13:28:12;11.70;;;6.07;;
35990;SDS011;22064;42.672;23.282;2023-06-26T13:30:38;9.48;;;6.10;;
35990;SDS011;22064;42.672;23.282;2023-06-26T13:33:04;12.18;;;5.72;;
35990;SDS011;22064;42.672;23.282;2023-06-26T13:35:30;8.25;;;5.38;;
35990;SDS011;22064;42.672;23.282;2023-06-26T13:37:56;9.63;;;6.05;;
35990;SDS011;22064;42.672;23.282;2023-06-26T13:40:22;11.15;;;5.50;;
35990;SDS011;22064;42.672;23.282;2023-06-26T13:42:47;8.02;;;5.28;;
35990;SDS011;22064;42.672;23.282;2023-06-26T13:45:14;11.23;;;5.57;;
35990;SDS011;22064;42.672;23.282;2023-06-26T13:47:39;8.25;;;5.63;;
35990;SDS011;22064;42.672;23.282;2023-06-26T13:50:07;14.48;;;5.97;;
35990;SDS011;22064;42.672;23.282;2023-06-26T13:52:35;8.40;;;5.30;;
35990;SDS011;22064;42.672;23.282;2023-06-26T13:55:01;8.50;;;5.68;;
35990;SDS011;22064;42.672;23.282;2023-06-26T13:57:30;8.60;;;5.57;;
35990;SDS011;22064;42.672;23.282;2023-06-26T13:59:56;9.63;;;5.72;;
35990;SDS011;22064;42.672;23.282;2023-06-26T14:02:23;11.57;;;5.88;;
35990;SDS011;22064;42.672;23.282;2023-06-26T14:04:49;12.07;;;6.85;;
35990;SDS011;22064;42.672;23.282;2023-06-26T14:07:15;12.07;;;6.03;;
35990;SDS011;22064;42.672;23.282;2023-06-26T14:09:41;9.52;;;6.25;;
35990;SDS011;22064;42.672;23.282;2023-06-26T14:12:07;10.73;;;6.15;;
35990;SDS011;22064;42.672;23.282;2023-06-26T14:14:33;12.68;;;6.65;;
35990;SDS011;22064;42.672;23.282;2023-06-26T14:16:59;9.55;;;5.28;;
35990;SDS011;22064;42.672;23.282;2023-06-26T14:19:25;11.98;;;6.00;;
35990;SDS011;22064;42.672;23.282;2023-06-26T14:21:51;7.70;;;5.07;;
35990;SDS011;22064;42.672;23.282;2023-06-26T14:24:18;8.73;;;5.07;;
35990;SDS011;22064;42.672;23.282;2023-06-26T14:26:43;8.55;;;4.95;;
35990;SDS011;22064;42.672;23.282;2023-06-26T14:29:09;8.07;;;4.75;;
35990;SDS011;22064;42.672;23.282;2023-06-26T14:31:35;9.57;;;5.53;;